sensor_id;sensor_type;location;lat;lon;timestamp;P1;durP1;ratioP1;P2;durP2;ratioP2
53299;SDS011;39187;48.476;8.310;2024-02-21T00:00:15;3.93;;;2.33;;
53299;SDS011;39187;48.476;8.310;2024-02-21T00:02:42;6.93;;;3.70;;
53299;SDS011;39187;48.476;8.310;2024-02-21T00:05:07;6.43;;;2.80;;
53299;SDS011;39187;48.476;8.310;2024-02-21T00:07:33;11.63;;;2.97;;
53299;SDS011;39187;48.476;8.310;2024-02-21T00:09:58;5.50;;;2.77;;
53299;SDS011;39187;48.476;8.310;2024-02-21T00:12:24;11.13;;;2.53;;
53299;SDS011;39187;48.476;8.310;2024-02-21T00:14:49;3.50;;;2.00;;
53299;SDS011;39187;48.476;8.310;2024-02-21T00:17:15;4.37;;;2.30;;
53299;SDS011;39187;48.476;8.310;2024-02-21T00:19:40;6.23;;;3.00;;
53299;SDS011;39187;48.476;8.310;2024-02-21T00:22:06;10.67;;;2.80;;
53299;SDS011;39187;48.476;8.310;2024-02-21T00:24:31;4.93;;;2.33;;
53299;SDS011;39187;48.476;8.310;2024-02-21T00:26:57;6.53;;;2.63;;
53299;SDS011;39187;48.476;8.310;2024-02-21T00:29:22;3.10;;;2.10;;
53299;SDS011;39187;48.476;8.310;2024-02-21T00:31:48;11.00;;;2.53;;
53299;SDS011;39187;48.476;8.310;2024-02-21T00:34:14;7.53;;;2.97;;
53299;SDS011;39187;48.476;8.310;2024-02-21T00:36:40;8.23;;;2.83;;
53299;SDS011;39187;48.476;8.310;2024-02-21T00:39:05;9.27;;;2.60;;
53299;SDS011;39187;48.476;8.310;2024-02-21T00:41:31;16.40;;;3.00;;
53299;SDS011;39187;48.476;8.310;2024-02-21T00:43:57;9.80;;;2.40;;
53299;SDS011;39187;48.476;8.310;2024-02-21T00:46:22;11.53;;;3.77;;
53299;SDS011;39187;48.476;8.310;2024-02-21T00:48:48;6.40;;;3.20;;
53299;SDS011;39187;48.476;8.310;2024-02-21T00:51:14;8.37;;;2.90;;
53299;SDS011;39187;48.476;8.310;2024-02-21T00:53:41;12.77;;;3.13;;
53299;SDS011;39187;48.476;8.310;2024-02-21T00:56:07;9.50;;;2.43;;
53299;SDS011;39187;48.476;8.310;2024-02-21T00:58:33;4.40;;;2.23;;
53299;SDS011;39187;48.476;8.310;2024-02-21T01:00:59;4.73;;;2.50;;
53299;SDS011;39187;48.476;8.310;2024-02-21T01:03:25;9.13;;;3.30;;
53299;SDS011;39187;48.476;8.310;2024-02-21T01:08:23;5.70;;;2.53;;
53299;SDS011;39187;48.476;8.310;2024-02-21T01:10:48;3.60;;;2.90;;
53299;SDS011;39187;48.476;8.310;2024-02-21T01:13:14;8.73;;;2.40;;
53299;SDS011;39187;48.476;8.310;2024-02-21T01:15:39;6.90;;;3.13;;
53299;SDS011;39187;48.476;8.310;2024-02-21T01:18:04;8.63;;;3.43;;
53299;SDS011;39187;48.476;8.310;2024-02-21T01:20:30;7.97;;;3.03;;
53299;SDS011;39187;48.476;8.310;2024-02-21T01:22:55;5.00;;;2.43;;
53299;SDS011;39187;48.476;8.310;2024-02-21T01:25:21;10.03;;;2.63;;
53299;SDS011;39187;48.476;8.310;2024-02-21T01:27:46;6.73;;;3.00;;
53299;SDS011;39187;48.476;8.310;2024-02-21T01:30:12;7.77;;;3.13;;
53299;SDS011;39187;48.476;8.310;2024-02-21T01:32:37;25.93;;;3.70;;
53299;SDS011;39187;48.476;8.310;2024-02-21T01:35:03;7.20;;;2.37;;
53299;SDS011;39187;48.476;8.310;2024-02-21T01:37:29;5.43;;;3.03;;
53299;SDS011;39187;48.476;8.310;2024-02-21T01:39:54;9.93;;;3.50;;
53299;SDS011;39187;48.476;8.310;2024-02-21T01:42:20;8.50;;;3.37;;
53299;SDS011;39187;48.476;8.310;2024-02-21T01:44:45;6.77;;;3.80;;
53299;SDS011;39187;48.476;8.310;2024-02-21T01:47:11;10.37;;;3.30;;
53299;SDS011;39187;48.476;8.310;2024-02-21T01:49:40;8.30;;;2.83;;
53299;SDS011;39187;48.476;8.310;2024-02-21T01:52:06;4.53;;;3.20;;
53299;SDS011;39187;48.476;8.310;2024-02-21T01:54:32;7.03;;;3.13;;
53299;SDS011;39187;48.476;8.310;2024-02-21T01:56:58;9.27;;;3.13;;
53299;SDS011;39187;48.476;8.310;2024-02-21T01:59:24;4.60;;;3.10;;
53299;SDS011;39187;48.476;8.310;2024-02-21T02:01:50;4.27;;;3.83;;
53299;SDS011;39187;48.476;8.310;2024-02-21T02:04:18;6.57;;;2.87;;
53299;SDS011;39187;48.476;8.310;2024-02-21T02:06:45;7.83;;;2.60;;
53299;SDS011;39187;48.476;8.310;2024-02-21T02:09:10;3.63;;;2.50;;
53299;SDS011;39187;48.476;8.310;2024-02-21T02:11:36;19.43;;;3.30;;
53299;SDS011;39187;48.476;8.310;2024-02-21T02:14:02;5.37;;;2.93;;
53299;SDS011;39187;48.476;8.310;2024-02-21T02:16:28;5.23;;;2.33;;
53299;SDS011;39187;48.476;8.310;2024-02-21T02:18:53;13.10;;;3.10;;
53299;SDS011;39187;48.476;8.310;2024-02-21T02:21:23;4.90;;;2.40;;
53299;SDS011;39187;48.476;8.310;2024-02-21T02:23:58;7.10;;;2.47;;
53299;SDS011;39187;48.476;8.310;2024-02-21T02:26:24;4.70;;;2.63;;
53299;SDS011;39187;48.476;8.310;2024-02-21T02:28:50;9.93;;;3.10;;
53299;SDS011;39187;48.476;8.310;2024-02-21T02:31:15;4.43;;;2.70;;
53299;SDS011;39187;48.476;8.310;2024-02-21T02:33:42;7.07;;;3.00;;
53299;SDS011;39187;48.476;8.310;2024-02-21T02:36:09;6.67;;;2.67;;
53299;SDS011;39187;48.476;8.310;2024-02-21T02:38:35;5.10;;;2.80;;
53299;SDS011;39187;48.476;8.310;2024-02-21T02:41:00;14.53;;;2.63;;
53299;SDS011;39187;48.476;8.310;2024-02-21T02:43:26;6.70;;;2.50;;
53299;SDS011;39187;48.476;8.310;2024-02-21T02:45:51;8.33;;;3.23;;
53299;SDS011;39187;48.476;8.310;2024-02-21T02:48:16;6.97;;;2.73;;
53299;SDS011;39187;48.476;8.310;2024-02-21T02:50:42;3.53;;;2.30;;
53299;SDS011;39187;48.476;8.310;2024-02-21T02:53:07;10.07;;;2.70;;
53299;SDS011;39187;48.476;8.310;2024-02-21T02:55:33;12.43;;;3.43;;
53299;SDS011;39187;48.476;8.310;2024-02-21T02:58:00;5.87;;;2.87;;
53299;SDS011;39187;48.476;8.310;2024-02-21T03:00:26;8.30;;;3.37;;
53299;SDS011;39187;48.476;8.310;2024-02-21T03:02:51;11.20;;;2.80;;
53299;SDS011;39187;48.476;8.310;2024-02-21T03:05:20;12.53;;;3.60;;
53299;SDS011;39187;48.476;8.310;2024-02-21T03:07:46;8.40;;;2.80;;
53299;SDS011;39187;48.476;8.310;2024-02-21T03:10:14;4.87;;;2.40;;
53299;SDS011;39187;48.476;8.310;2024-02-21T03:12:41;6.70;;;2.53;;
53299;SDS011;39187;48.476;8.310;2024-02-21T03:15:07;4.43;;;2.50;;
53299;SDS011;39187;48.476;8.310;2024-02-21T03:17:33;3.10;;;2.50;;
53299;SDS011;39187;48.476;8.310;2024-02-21T03:19:59;13.00;;;2.87;;
53299;SDS011;39187;48.476;8.310;2024-02-21T03:22:25;6.47;;;2.40;;
53299;SDS011;39187;48.476;8.310;2024-02-21T03:24:51;6.50;;;3.43;;
53299;SDS011;39187;48.476;8.310;2024-02-21T03:27:16;16.43;;;2.83;;
53299;SDS011;39187;48.476;8.310;2024-02-21T03:29:42;4.87;;;2.10;;
53299;SDS011;39187;48.476;8.310;2024-02-21T03:32:08;4.87;;;2.30;;
53299;SDS011;39187;48.476;8.310;2024-02-21T03:34:33;11.50;;;3.40;;
53299;SDS011;39187;48.476;8.310;2024-02-21T03:36:58;5.27;;;3.03;;
53299;SDS011;39187;48.476;8.310;2024-02-21T03:39:25;9.03;;;3.03;;
53299;SDS011;39187;48.476;8.310;2024-02-21T03:41:50;21.23;;;3.30;;
53299;SDS011;39187;48.476;8.310;2024-02-21T03:44:16;9.53;;;2.20;;
53299;SDS011;39187;48.476;8.310;2024-02-21T03:46:41;10.40;;;3.37;;
53299;SDS011;39187;48.476;8.310;2024-02-21T03:49:07;9.00;;;3.40;;
53299;SDS011;39187;48.476;8.310;2024-02-21T03:51:32;5.80;;;2.47;;
53299;SDS011;39187;48.476;8.310;2024-02-21T03:53:58;4.47;;;2.40;;
53299;SDS011;39187;48.476;8.310;2024-02-21T03:56:23;4.77;;;2.43;;
53299;SDS011;39187;48.476;8.310;2024-02-21T03:58:49;5.20;;;2.30;;
53299;SDS011;39187;48.476;8.310;2024-02-21T04:01:15;7.40;;;3.00;;
53299;SDS011;39187;48.476;8.310;2024-02-21T04:03:42;10.40;;;2.60;;
53299;SDS011;39187;48.476;8.310;2024-02-21T04:06:08;12.23;;;3.10;;
53299;SDS011;39187;48.476;8.310;2024-02-21T04:08:35;6.63;;;3.47;;
53299;SDS011;39187;48.476;8.310;2024-02-21T04:11:00;9.27;;;2.87;;
53299;SDS011;39187;48.476;8.310;2024-02-21T04:13:26;8.20;;;2.90;;
53299;SDS011;39187;48.476;8.310;2024-02-21T04:15:51;6.93;;;3.27;;
53299;SDS011;39187;48.476;8.310;2024-02-21T04:18:17;5.03;;;2.10;;
53299;SDS011;39187;48.476;8.310;2024-02-21T04:20:42;4.80;;;2.33;;
53299;SDS011;39187;48.476;8.310;2024-02-21T04:23:08;4.03;;;3.33;;
53299;SDS011;39187;48.476;8.310;2024-02-21T04:25:33;9.83;;;3.90;;
53299;SDS011;39187;48.476;8.310;2024-02-21T04:27:59;8.93;;;3.83;;
53299;SDS011;39187;48.476;8.310;2024-02-21T04:30:24;8.00;;;4.00;;
53299;SDS011;39187;48.476;8.310;2024-02-21T04:32:50;12.63;;;3.37;;
53299;SDS011;39187;48.476;8.310;2024-02-21T04:35:16;7.17;;;2.27;;
53299;SDS011;39187;48.476;8.310;2024-02-21T04:37:41;9.13;;;2.50;;
53299;SDS011;39187;48.476;8.310;2024-02-21T04:40:07;5.97;;;2.43;;
53299;SDS011;39187;48.476;8.310;2024-02-21T04:42:34;11.43;;;2.00;;
53299;SDS011;39187;48.476;8.310;2024-02-21T04:44:59;8.87;;;2.53;;
53299;SDS011;39187;48.476;8.310;2024-02-21T04:47:25;6.53;;;2.83;;
53299;SDS011;39187;48.476;8.310;2024-02-21T04:49:51;4.90;;;2.37;;
53299;SDS011;39187;48.476;8.310;2024-02-21T04:52:17;5.70;;;3.73;;
53299;SDS011;39187;48.476;8.310;2024-02-21T04:54:42;5.93;;;3.10;;
53299;SDS011;39187;48.476;8.310;2024-02-21T04:57:08;11.13;;;3.10;;
53299;SDS011;39187;48.476;8.310;2024-02-21T04:59:35;3.30;;;2.40;;
53299;SDS011;39187;48.476;8.310;2024-02-21T05:02:01;5.00;;;2.40;;
53299;SDS011;39187;48.476;8.310;2024-02-21T05:04:27;2.43;;;2.20;;
53299;SDS011;39187;48.476;8.310;2024-02-21T05:06:52;2.57;;;2.10;;
53299;SDS011;39187;48.476;8.310;2024-02-21T05:09:18;8.23;;;2.57;;
53299;SDS011;39187;48.476;8.310;2024-02-21T05:11:43;3.73;;;2.20;;
53299;SDS011;39187;48.476;8.310;2024-02-21T05:14:08;8.13;;;2.60;;
53299;SDS011;39187;48.476;8.310;2024-02-21T05:16:34;14.77;;;2.80;;
53299;SDS011;39187;48.476;8.310;2024-02-21T05:18:59;4.53;;;2.40;;
53299;SDS011;39187;48.476;8.310;2024-02-21T05:21:25;9.07;;;2.73;;
53299;SDS011;39187;48.476;8.310;2024-02-21T05:23:52;6.90;;;2.50;;
53299;SDS011;39187;48.476;8.310;2024-02-21T05:26:24;5.00;;;2.83;;
53299;SDS011;39187;48.476;8.310;2024-02-21T05:28:50;9.67;;;2.43;;
53299;SDS011;39187;48.476;8.310;2024-02-21T05:31:17;6.23;;;2.63;;
53299;SDS011;39187;48.476;8.310;2024-02-21T05:33:43;9.53;;;3.53;;
53299;SDS011;39187;48.476;8.310;2024-02-21T05:36:09;3.63;;;2.47;;
53299;SDS011;39187;48.476;8.310;2024-02-21T05:38:35;6.23;;;2.50;;
53299;SDS011;39187;48.476;8.310;2024-02-21T05:41:01;5.63;;;2.60;;
53299;SDS011;39187;48.476;8.310;2024-02-21T05:43:26;10.10;;;3.23;;
53299;SDS011;39187;48.476;8.310;2024-02-21T05:45:52;9.10;;;2.73;;
53299;SDS011;39187;48.476;8.310;2024-02-21T05:48:17;9.97;;;2.90;;
53299;SDS011;39187;48.476;8.310;2024-02-21T05:50:43;10.10;;;2.80;;
53299;SDS011;39187;48.476;8.310;2024-02-21T05:53:08;9.50;;;2.83;;
53299;SDS011;39187;48.476;8.310;2024-02-21T05:55:35;5.40;;;2.93;;
53299;SDS011;39187;48.476;8.310;2024-02-21T05:58:00;13.57;;;3.97;;
53299;SDS011;39187;48.476;8.310;2024-02-21T06:00:27;7.50;;;3.03;;
53299;SDS011;39187;48.476;8.310;2024-02-21T06:02:53;5.87;;;2.70;;
53299;SDS011;39187;48.476;8.310;2024-02-21T06:05:18;11.30;;;3.50;;
53299;SDS011;39187;48.476;8.310;2024-02-21T06:07:44;4.20;;;3.00;;
53299;SDS011;39187;48.476;8.310;2024-02-21T06:10:09;11.63;;;3.10;;
53299;SDS011;39187;48.476;8.310;2024-02-21T06:12:35;5.00;;;2.20;;
53299;SDS011;39187;48.476;8.310;2024-02-21T06:15:00;7.50;;;2.53;;
53299;SDS011;39187;48.476;8.310;2024-02-21T06:17:26;10.47;;;3.00;;
53299;SDS011;39187;48.476;8.310;2024-02-21T06:19:51;15.53;;;3.33;;
53299;SDS011;39187;48.476;8.310;2024-02-21T06:22:17;5.83;;;2.63;;
53299;SDS011;39187;48.476;8.310;2024-02-21T06:24:42;8.67;;;2.70;;
53299;SDS011;39187;48.476;8.310;2024-02-21T06:27:08;5.33;;;2.40;;
53299;SDS011;39187;48.476;8.310;2024-02-21T06:29:34;11.63;;;2.93;;
53299;SDS011;39187;48.476;8.310;2024-02-21T06:32:00;4.57;;;3.17;;
53299;SDS011;39187;48.476;8.310;2024-02-21T06:34:25;3.20;;;2.90;;
53299;SDS011;39187;48.476;8.310;2024-02-21T06:36:51;11.20;;;2.83;;
53299;SDS011;39187;48.476;8.310;2024-02-21T06:39:17;9.77;;;3.57;;
53299;SDS011;39187;48.476;8.310;2024-02-21T06:41:42;7.30;;;3.33;;
53299;SDS011;39187;48.476;8.310;2024-02-21T06:44:08;9.20;;;3.13;;
53299;SDS011;39187;48.476;8.310;2024-02-21T06:46:34;7.60;;;3.00;;
53299;SDS011;39187;48.476;8.310;2024-02-21T06:49:00;2.50;;;2.30;;
53299;SDS011;39187;48.476;8.310;2024-02-21T06:51:26;7.53;;;2.77;;
53299;SDS011;39187;48.476;8.310;2024-02-21T06:53:52;14.80;;;3.13;;
53299;SDS011;39187;48.476;8.310;2024-02-21T06:56:19;4.37;;;2.43;;
53299;SDS011;39187;48.476;8.310;2024-02-21T06:58:44;10.53;;;3.03;;
53299;SDS011;39187;48.476;8.310;2024-02-21T07:01:10;17.63;;;2.90;;
53299;SDS011;39187;48.476;8.310;2024-02-21T07:03:36;8.63;;;2.50;;
53299;SDS011;39187;48.476;8.310;2024-02-21T07:06:02;5.97;;;2.80;;
53299;SDS011;39187;48.476;8.310;2024-02-21T07:08:27;2.70;;;2.20;;
53299;SDS011;39187;48.476;8.310;2024-02-21T07:10:53;4.40;;;2.10;;
53299;SDS011;39187;48.476;8.310;2024-02-21T07:13:19;5.03;;;2.40;;
53299;SDS011;39187;48.476;8.310;2024-02-21T07:15:46;4.93;;;2.10;;
53299;SDS011;39187;48.476;8.310;2024-02-21T07:18:13;6.37;;;2.43;;
53299;SDS011;39187;48.476;8.310;2024-02-21T07:20:38;12.67;;;2.40;;
53299;SDS011;39187;48.476;8.310;2024-02-21T07:23:03;5.93;;;2.30;;
53299;SDS011;39187;48.476;8.310;2024-02-21T07:25:29;5.80;;;2.23;;
53299;SDS011;39187;48.476;8.310;2024-02-21T07:27:54;9.03;;;2.80;;
53299;SDS011;39187;48.476;8.310;2024-02-21T07:30:20;2.60;;;2.40;;
53299;SDS011;39187;48.476;8.310;2024-02-21T07:32:48;7.77;;;3.00;;
53299;SDS011;39187;48.476;8.310;2024-02-21T07:35:15;2.50;;;2.30;;
53299;SDS011;39187;48.476;8.310;2024-02-21T07:37:40;2.40;;;1.80;;
53299;SDS011;39187;48.476;8.310;2024-02-21T07:40:06;8.33;;;2.73;;
53299;SDS011;39187;48.476;8.310;2024-02-21T07:42:32;5.73;;;1.90;;
53299;SDS011;39187;48.476;8.310;2024-02-21T07:44:58;15.23;;;2.60;;
53299;SDS011;39187;48.476;8.310;2024-02-21T07:47:23;6.57;;;1.97;;
53299;SDS011;39187;48.476;8.310;2024-02-21T07:49:49;5.80;;;2.40;;
53299;SDS011;39187;48.476;8.310;2024-02-21T07:52:15;6.37;;;2.60;;
53299;SDS011;39187;48.476;8.310;2024-02-21T07:54:40;4.30;;;2.27;;
53299;SDS011;39187;48.476;8.310;2024-02-21T07:57:09;9.53;;;2.20;;
53299;SDS011;39187;48.476;8.310;2024-02-21T07:59:34;5.33;;;2.20;;
53299;SDS011;39187;48.476;8.310;2024-02-21T08:02:00;5.47;;;2.10;;
53299;SDS011;39187;48.476;8.310;2024-02-21T08:04:25;6.27;;;2.17;;
53299;SDS011;39187;48.476;8.310;2024-02-21T08:06:54;6.90;;;1.83;;
53299;SDS011;39187;48.476;8.310;2024-02-21T08:09:26;4.40;;;2.07;;
53299;SDS011;39187;48.476;8.310;2024-02-21T08:11:52;3.80;;;2.13;;
53299;SDS011;39187;48.476;8.310;2024-02-21T08:14:19;3.83;;;2.20;;
53299;SDS011;39187;48.476;8.310;2024-02-21T08:16:44;6.23;;;2.33;;
53299;SDS011;39187;48.476;8.310;2024-02-21T08:19:10;13.73;;;2.10;;
53299;SDS011;39187;48.476;8.310;2024-02-21T08:21:36;6.93;;;3.17;;
53299;SDS011;39187;48.476;8.310;2024-02-21T08:24:01;3.60;;;1.50;;
53299;SDS011;39187;48.476;8.310;2024-02-21T08:26:27;3.73;;;2.20;;
53299;SDS011;39187;48.476;8.310;2024-02-21T08:28:56;7.83;;;1.87;;
53299;SDS011;39187;48.476;8.310;2024-02-21T08:31:26;5.57;;;2.20;;
53299;SDS011;39187;48.476;8.310;2024-02-21T08:33:58;5.43;;;1.33;;
53299;SDS011;39187;48.476;8.310;2024-02-21T08:36:28;3.63;;;1.70;;
53299;SDS011;39187;48.476;8.310;2024-02-21T08:38:54;3.10;;;2.00;;
53299;SDS011;39187;48.476;8.310;2024-02-21T08:41:20;4.20;;;1.53;;
53299;SDS011;39187;48.476;8.310;2024-02-21T08:43:48;11.63;;;2.03;;
53299;SDS011;39187;48.476;8.310;2024-02-21T08:46:14;5.63;;;1.60;;
53299;SDS011;39187;48.476;8.310;2024-02-21T08:48:39;4.43;;;1.87;;
53299;SDS011;39187;48.476;8.310;2024-02-21T08:51:05;9.43;;;1.87;;
53299;SDS011;39187;48.476;8.310;2024-02-21T08:53:31;6.10;;;2.17;;
53299;SDS011;39187;48.476;8.310;2024-02-21T08:55:58;2.87;;;1.50;;
53299;SDS011;39187;48.476;8.310;2024-02-21T08:58:24;1.80;;;1.60;;
53299;SDS011;39187;48.476;8.310;2024-02-21T09:00:51;2.50;;;1.50;;
53299;SDS011;39187;48.476;8.310;2024-02-21T09:03:17;1.97;;;0.97;;
53299;SDS011;39187;48.476;8.310;2024-02-21T09:05:45;1.87;;;1.47;;
53299;SDS011;39187;48.476;8.310;2024-02-21T09:08:11;2.83;;;1.20;;
53299;SDS011;39187;48.476;8.310;2024-02-21T09:10:36;6.87;;;1.97;;
53299;SDS011;39187;48.476;8.310;2024-02-21T09:13:02;2.93;;;1.37;;
53299;SDS011;39187;48.476;8.310;2024-02-21T09:15:28;15.23;;;1.50;;
53299;SDS011;39187;48.476;8.310;2024-02-21T09:17:54;6.50;;;1.70;;
53299;SDS011;39187;48.476;8.310;2024-02-21T09:20:19;6.80;;;2.10;;
53299;SDS011;39187;48.476;8.310;2024-02-21T09:22:45;2.97;;;2.57;;
53299;SDS011;39187;48.476;8.310;2024-02-21T09:25:10;2.40;;;1.40;;
53299;SDS011;39187;48.476;8.310;2024-02-21T09:27:37;1.50;;;1.40;;
53299;SDS011;39187;48.476;8.310;2024-02-21T09:30:05;4.33;;;1.63;;
53299;SDS011;39187;48.476;8.310;2024-02-21T09:32:31;2.50;;;1.00;;
53299;SDS011;39187;48.476;8.310;2024-02-21T09:34:58;4.00;;;1.20;;
53299;SDS011;39187;48.476;8.310;2024-02-21T09:37:23;2.50;;;1.20;;
53299;SDS011;39187;48.476;8.310;2024-02-21T09:39:49;2.27;;;1.53;;
53299;SDS011;39187;48.476;8.310;2024-02-21T09:42:18;3.43;;;1.40;;
53299;SDS011;39187;48.476;8.310;2024-02-21T09:44:46;2.23;;;2.03;;
53299;SDS011;39187;48.476;8.310;2024-02-21T09:47:34;2.80;;;1.13;;
53299;SDS011;39187;48.476;8.310;2024-02-21T09:50:09;1.57;;;1.10;;
53299;SDS011;39187;48.476;8.310;2024-02-21T09:52:35;1.63;;;1.20;;
53299;SDS011;39187;48.476;8.310;2024-02-21T09:55:02;3.73;;;0.80;;
53299;SDS011;39187;48.476;8.310;2024-02-21T09:57:30;1.43;;;1.00;;
53299;SDS011;39187;48.476;8.310;2024-02-21T09:59:56;1.10;;;1.00;;
53299;SDS011;39187;48.476;8.310;2024-02-21T10:02:24;3.10;;;1.80;;
53299;SDS011;39187;48.476;8.310;2024-02-21T10:04:49;2.93;;;1.00;;
53299;SDS011;39187;48.476;8.310;2024-02-21T10:07:15;2.73;;;1.40;;
53299;SDS011;39187;48.476;8.310;2024-02-21T10:09:40;2.03;;;1.17;;
53299;SDS011;39187;48.476;8.310;2024-02-21T10:12:10;2.40;;;1.37;;
53299;SDS011;39187;48.476;8.310;2024-02-21T10:14:43;4.13;;;1.03;;
53299;SDS011;39187;48.476;8.310;2024-02-21T10:17:14;2.10;;;1.30;;
53299;SDS011;39187;48.476;8.310;2024-02-21T10:19:43;2.50;;;1.67;;
53299;SDS011;39187;48.476;8.310;2024-02-21T10:22:08;1.00;;;0.90;;
53299;SDS011;39187;48.476;8.310;2024-02-21T10:24:34;1.40;;;1.17;;
53299;SDS011;39187;48.476;8.310;2024-02-21T10:27:03;2.43;;;0.90;;
53299;SDS011;39187;48.476;8.310;2024-02-21T10:29:33;1.20;;;0.83;;
53299;SDS011;39187;48.476;8.310;2024-02-21T10:32:12;2.13;;;0.97;;
53299;SDS011;39187;48.476;8.310;2024-02-21T10:34:39;3.30;;;1.60;;
53299;SDS011;39187;48.476;8.310;2024-02-21T10:37:06;0.90;;;0.77;;
53299;SDS011;39187;48.476;8.310;2024-02-21T10:39:33;2.03;;;1.10;;
53299;SDS011;39187;48.476;8.310;2024-02-21T10:42:03;1.50;;;0.93;;
53299;SDS011;39187;48.476;8.310;2024-02-21T10:44:29;1.53;;;0.90;;
53299;SDS011;39187;48.476;8.310;2024-02-21T10:47:02;1.50;;;1.10;;
53299;SDS011;39187;48.476;8.310;2024-02-21T10:49:42;4.83;;;1.00;;
53299;SDS011;39187;48.476;8.310;2024-02-21T10:55:03;3.33;;;0.97;;
53299;SDS011;39187;48.476;8.310;2024-02-21T10:57:33;2.77;;;1.07;;
53299;SDS011;39187;48.476;8.310;2024-02-21T11:00:00;2.60;;;1.50;;
53299;SDS011;39187;48.476;8.310;2024-02-21T11:02:28;1.27;;;1.20;;
53299;SDS011;39187;48.476;8.310;2024-02-21T11:04:56;2.87;;;1.63;;
53299;SDS011;39187;48.476;8.310;2024-02-21T11:07:23;1.70;;;0.70;;
53299;SDS011;39187;48.476;8.310;2024-02-21T11:09:52;0.90;;;0.80;;
53299;SDS011;39187;48.476;8.310;2024-02-21T11:12:20;1.13;;;1.03;;
53299;SDS011;39187;48.476;8.310;2024-02-21T11:14:47;1.87;;;0.80;;
53299;SDS011;39187;48.476;8.310;2024-02-21T11:17:16;4.33;;;0.93;;
53299;SDS011;39187;48.476;8.310;2024-02-21T11:19:42;1.20;;;0.70;;
53299;SDS011;39187;48.476;8.310;2024-02-21T11:22:18;2.13;;;0.70;;
53299;SDS011;39187;48.476;8.310;2024-02-21T11:24:46;1.07;;;0.80;;
53299;SDS011;39187;48.476;8.310;2024-02-21T11:27:13;0.70;;;0.70;;
53299;SDS011;39187;48.476;8.310;2024-02-21T11:29:45;0.70;;;0.67;;
53299;SDS011;39187;48.476;8.310;2024-02-21T11:32:19;8.93;;;0.70;;
53299;SDS011;39187;48.476;8.310;2024-02-21T11:35:02;1.00;;;0.90;;
53299;SDS011;39187;48.476;8.310;2024-02-21T11:37:31;1.40;;;0.97;;
53299;SDS011;39187;48.476;8.310;2024-02-21T11:40:04;2.27;;;0.87;;
53299;SDS011;39187;48.476;8.310;2024-02-21T11:42:34;0.87;;;0.87;;
53299;SDS011;39187;48.476;8.310;2024-02-21T11:45:00;0.80;;;0.73;;
53299;SDS011;39187;48.476;8.310;2024-02-21T11:47:28;0.77;;;0.73;;
53299;SDS011;39187;48.476;8.310;2024-02-21T11:49:53;4.43;;;0.80;;
53299;SDS011;39187;48.476;8.310;2024-02-21T11:52:22;1.47;;;1.10;;
53299;SDS011;39187;48.476;8.310;2024-02-21T11:54:52;1.37;;;0.80;;
53299;SDS011;39187;48.476;8.310;2024-02-21T11:57:19;1.10;;;1.00;;
53299;SDS011;39187;48.476;8.310;2024-02-21T11:59:45;1.30;;;0.73;;
53299;SDS011;39187;48.476;8.310;2024-02-21T12:02:12;2.97;;;1.00;;
53299;SDS011;39187;48.476;8.310;2024-02-21T12:04:38;0.67;;;0.63;;
53299;SDS011;39187;48.476;8.310;2024-02-21T12:07:04;2.60;;;1.23;;
53299;SDS011;39187;48.476;8.310;2024-02-21T12:09:30;0.80;;;0.80;;
53299;SDS011;39187;48.476;8.310;2024-02-21T12:12:00;1.00;;;0.80;;
53299;SDS011;39187;48.476;8.310;2024-02-21T12:14:30;1.17;;;0.70;;
53299;SDS011;39187;48.476;8.310;2024-02-21T12:16:56;1.23;;;1.13;;
53299;SDS011;39187;48.476;8.310;2024-02-21T12:19:22;1.03;;;1.03;;
53299;SDS011;39187;48.476;8.310;2024-02-21T12:21:48;1.60;;;1.10;;
53299;SDS011;39187;48.476;8.310;2024-02-21T12:24:24;3.03;;;1.20;;
53299;SDS011;39187;48.476;8.310;2024-02-21T12:26:51;1.10;;;0.77;;
53299;SDS011;39187;48.476;8.310;2024-02-21T12:29:17;0.90;;;0.90;;
53299;SDS011;39187;48.476;8.310;2024-02-21T12:31:43;2.50;;;0.90;;
53299;SDS011;39187;48.476;8.310;2024-02-21T12:34:10;1.17;;;0.90;;
53299;SDS011;39187;48.476;8.310;2024-02-21T12:36:36;1.60;;;0.77;;
53299;SDS011;39187;48.476;8.310;2024-02-21T12:39:10;1.03;;;0.93;;
53299;SDS011;39187;48.476;8.310;2024-02-21T12:41:36;1.20;;;1.10;;
53299;SDS011;39187;48.476;8.310;2024-02-21T12:44:06;1.30;;;1.20;;
53299;SDS011;39187;48.476;8.310;2024-02-21T12:46:36;1.47;;;1.00;;
53299;SDS011;39187;48.476;8.310;2024-02-21T12:49:02;1.00;;;0.90;;
53299;SDS011;39187;48.476;8.310;2024-02-21T12:51:29;1.00;;;0.90;;
53299;SDS011;39187;48.476;8.310;2024-02-21T12:53:55;1.50;;;1.40;;
53299;SDS011;39187;48.476;8.310;2024-02-21T12:56:21;0.93;;;0.93;;
53299;SDS011;39187;48.476;8.310;2024-02-21T12:58:47;1.30;;;1.20;;
53299;SDS011;39187;48.476;8.310;2024-02-21T13:01:12;1.33;;;1.20;;
53299;SDS011;39187;48.476;8.310;2024-02-21T13:03:38;1.10;;;1.00;;
53299;SDS011;39187;48.476;8.310;2024-02-21T13:06:04;1.40;;;1.00;;
53299;SDS011;39187;48.476;8.310;2024-02-21T13:08:31;1.47;;;1.37;;
53299;SDS011;39187;48.476;8.310;2024-02-21T13:10:57;1.00;;;1.00;;
53299;SDS011;39187;48.476;8.310;2024-02-21T13:13:22;3.63;;;1.30;;
53299;SDS011;39187;48.476;8.310;2024-02-21T13:15:48;1.40;;;1.30;;
53299;SDS011;39187;48.476;8.310;2024-02-21T13:18:13;2.40;;;1.13;;
53299;SDS011;39187;48.476;8.310;2024-02-21T13:20:38;1.60;;;1.50;;
53299;SDS011;39187;48.476;8.310;2024-02-21T13:23:04;1.37;;;1.00;;
53299;SDS011;39187;48.476;8.310;2024-02-21T13:25:29;1.07;;;1.07;;
53299;SDS011;39187;48.476;8.310;2024-02-21T13:27:55;1.07;;;0.80;;
53299;SDS011;39187;48.476;8.310;2024-02-21T13:30:21;2.60;;;1.33;;
53299;SDS011;39187;48.476;8.310;2024-02-21T13:32:47;2.93;;;1.20;;
53299;SDS011;39187;48.476;8.310;2024-02-21T13:35:12;4.30;;;1.17;;
53299;SDS011;39187;48.476;8.310;2024-02-21T13:37:38;1.00;;;0.80;;
53299;SDS011;39187;48.476;8.310;2024-02-21T13:40:05;1.10;;;1.10;;
53299;SDS011;39187;48.476;8.310;2024-02-21T13:42:31;0.90;;;0.90;;
53299;SDS011;39187;48.476;8.310;2024-02-21T13:44:56;1.50;;;1.00;;
53299;SDS011;39187;48.476;8.310;2024-02-21T13:47:22;1.40;;;1.30;;
53299;SDS011;39187;48.476;8.310;2024-02-21T13:49:47;2.83;;;0.90;;
53299;SDS011;39187;48.476;8.310;2024-02-21T13:52:13;1.73;;;1.63;;
53299;SDS011;39187;48.476;8.310;2024-02-21T13:54:39;2.37;;;1.20;;
53299;SDS011;39187;48.476;8.310;2024-02-21T13:57:05;1.77;;;1.00;;
53299;SDS011;39187;48.476;8.310;2024-02-21T13:59:30;1.50;;;1.40;;
53299;SDS011;39187;48.476;8.310;2024-02-21T14:01:58;1.67;;;1.57;;
53299;SDS011;39187;48.476;8.310;2024-02-21T14:04:24;1.40;;;1.30;;
53299;SDS011;39187;48.476;8.310;2024-02-21T14:06:49;2.83;;;1.50;;
53299;SDS011;39187;48.476;8.310;2024-02-21T14:09:15;1.10;;;1.00;;
53299;SDS011;39187;48.476;8.310;2024-02-21T14:11:40;1.87;;;1.40;;
53299;SDS011;39187;48.476;8.310;2024-02-21T14:14:07;1.00;;;1.00;;
53299;SDS011;39187;48.476;8.310;2024-02-21T14:16:32;1.27;;;1.17;;
53299;SDS011;39187;48.476;8.310;2024-02-21T14:18:58;1.53;;;1.43;;
53299;SDS011;39187;48.476;8.310;2024-02-21T14:21:24;1.43;;;1.33;;
53299;SDS011;39187;48.476;8.310;2024-02-21T14:23:49;3.07;;;1.33;;
53299;SDS011;39187;48.476;8.310;2024-02-21T14:26:15;1.90;;;1.80;;
53299;SDS011;39187;48.476;8.310;2024-02-21T14:28:41;1.20;;;1.10;;
53299;SDS011;39187;48.476;8.310;2024-02-21T14:31:07;1.93;;;1.10;;
53299;SDS011;39187;48.476;8.310;2024-02-21T14:33:37;2.13;;;1.93;;
53299;SDS011;39187;48.476;8.310;2024-02-21T14:36:03;1.30;;;1.10;;
53299;SDS011;39187;48.476;8.310;2024-02-21T14:38:29;1.10;;;1.10;;
53299;SDS011;39187;48.476;8.310;2024-02-21T14:40:55;1.07;;;0.97;;
53299;SDS011;39187;48.476;8.310;2024-02-21T14:43:20;1.87;;;1.00;;
53299;SDS011;39187;48.476;8.310;2024-02-21T14:45:48;1.43;;;1.33;;